Flight Track Log - Related Links

Times and Time Zones

All times are in EDT time to prevent confusion due to time zone crossing. See the UAL1119 flight status page for this flight to view local times or setup timezone preferences in your user account.

Time Position Orientation Groundspeed Altitude Reporting Facility
EDT Latitude Longitude Course Direction KTS MPH feet Rate Location/Type
Tue 12:24:57 PM 39.8667 -104.5500 106° East 219 252 7,400  Level Denver TRACON
Tue 12:25:57 PM 39.8333 -104.4667 117° Southeast 280 322 8,900 1,737 Climbing Denver TRACON
Tue 12:26:51 PM 39.8000 -104.3667 113° Southeast 319 367 10,700 1,778 Climbing Denver TRACON
Tue 12:27:00 PM 39.5086 -104.2303 113° Southeast  Level Estimated
Tue 12:27:45 PM 39.7667 -104.2833 117° Southeast 362 417 12,100  Level Denver TRACON
Tue 12:28:00 PM 39.4201 -104.1203 113° Southeast  Level Estimated
Tue 12:28:45 PM 39.7333 -104.1500 108° East 382 440 14,400  Level Denver TRACON
Tue 12:29:00 PM 39.3315 -104.0106 108° East  Level Estimated
Tue 12:30:00 PM 39.2427 -103.9011 106° East  Level Estimated
Tue 12:30:14 PM 39.6550 -103.9517 117° Southeast 402 463 17,800  Level Denver Center
Tue 12:31:16 PM 39.6003 -103.8222 119° Southeast 410 472 20,400 2,274 Climbing Denver Center
Tue 12:32:18 PM 39.5600 -103.6758 110° East 400 460 22,500 1,872 Climbing Denver Center
Tue 12:33:21 PM 39.5222 -103.5306 109° East 423 487 24,300 1,632 Climbing Denver Center
Tue 12:34:23 PM 39.4825 -103.3806 109° East 438 504 25,900 1,355 Climbing Denver Center
Tue 12:35:25 PM 39.4422 -103.2247 108° East 454 522 27,100 1,210 Climbing Denver Center
Tue 12:36:27 PM 39.3989 -103.0639 109° East 471 542 28,400 1,306 Climbing Denver Center
Tue 12:37:29 PM 39.3553 -102.8994 109° East 483 556 29,800 1,258 Climbing Denver Center
Tue 12:38:31 PM 39.3031 -102.7100 110° East 487 560 31,000 434 Climbing Denver Center
Tue 12:40:15 PM 39.2228 -102.4167 109° East 491 565 31,000 36 Level Kansas City Center
Tue 12:41:17 PM 39.1800 -102.2544 109° East 495 570 31,100 919 Climbing Kansas City Center
Tue 12:42:19 PM 39.1278 -102.0703 110° East 492 566 32,900 1,452 Climbing Kansas City Center
Tue 12:43:21 PM 39.0489 -101.9411 128° Southeast 490 564 34,100 1,021 Climbing Kansas City Center
Tue 12:43:53 PM 39.0161 -101.9078 142° Southeast 481 554 34,500 1,021 Climbing Denver Center
Tue 12:44:55 PM 38.8844 -101.7644 140° Southeast 482 555 35,700 960 Climbing Denver Center
Tue 12:45:58 PM 38.7853 -101.6553 139° Southeast 489 563 36,500 624 Climbing Denver Center
Tue 12:47:00 PM 38.6686 -101.5308 140° Southeast 489 563 37,000 242 Climbing Denver Center
Tue 12:48:02 PM 38.5708 -101.4242 140° Southeast 484 557 37,000  Level Denver Center
Tue 12:49:04 PM 38.4561 -101.2997 140° Southeast 484 557 37,000  Level Denver Center
Tue 12:50:35 PM 38.3089 -101.1381 139° Southeast 483 556 37,000  Level Kansas City Center
Tue 12:51:37 PM 38.1939 -101.0156 140° Southeast 481 554 37,000  Level Kansas City Center
Tue 12:52:39 PM 38.0967 -100.9119 140° Southeast 478 550 37,000  Level Kansas City Center
Tue 12:53:41 PM 37.9839 -100.7906 140° Southeast 474 545 37,000  Level Kansas City Center
Tue 12:54:43 PM 37.8847 -100.6872 141° Southeast 475 547 37,000  Level Kansas City Center
Tue 12:55:45 PM 37.7811 -100.5808 141° Southeast 477 549 37,000  Level Kansas City Center
Tue 12:56:47 PM 37.6667 -100.4669 142° Southeast 477 549 37,000  Level Kansas City Center
Tue 12:57:49 PM 37.5672 -100.3664 141° Southeast 476 548 37,000  Level Kansas City Center
Tue 12:58:52 PM 37.4517 -100.2511 142° Southeast 474 545 37,000  Level Kansas City Center
Tue 01:00:00 PM 37.3432 -100.1428 141° Southeast  Level FlightAware Approximate
Tue 01:00:56 PM 37.2356 -100.0358 141° Southeast 477 549 37,000  Level Kansas City Center
Tue 01:01:58 PM 37.1364 -99.9378 142° Southeast 474 545 37,000  Level Kansas City Center
Tue 01:03:00 PM 37.0225 -99.8225 141° Southeast 473 544 37,000  Level Kansas City Center
Tue 01:04:02 PM 36.9308 -99.7344 142° Southeast 470 541 37,000  Level Kansas City Center
Tue 01:05:04 PM 36.8283 -99.6319 141° Southeast 470 541 37,000  Level Kansas City Center
Tue 01:06:06 PM 36.7036 -99.5106 142° Southeast 472 543 37,000  Level Kansas City Center
Tue 01:07:08 PM 36.6008 -99.4086 141° Southeast 471 542 37,000  Level Kansas City Center
Tue 01:08:10 PM 36.4969 -99.3083 142° Southeast 470 541 37,000  Level Kansas City Center
Tue 01:09:12 PM 36.3931 -99.2078 142° Southeast 469 540 37,000  Level Kansas City Center
Tue 01:10:14 PM 36.2892 -99.1056 142° Southeast 471 542 37,000  Level Kansas City Center
Tue 01:11:16 PM 36.1756 -98.9956 142° Southeast 475 547 37,000  Level Kansas City Center
Tue 01:12:18 PM 36.0703 -98.8972 143° Southeast 476 548 37,000  Level Kansas City Center
Tue 01:13:20 PM 35.9661 -98.7964 142° Southeast 477 549 37,000  Level Kansas City Center
Tue 01:14:22 PM 35.8622 -98.6983 143° Southeast 477 549 37,000  Level Kansas City Center
Tue 01:15:24 PM 35.7350 -98.5775 142° Southeast 479 551 37,000  Level Kansas City Center
Tue 01:16:26 PM 35.6289 -98.4786 143° Southeast 478 550 37,000  Level Kansas City Center
Tue 01:17:14 PM 35.5419 -98.4008 144° Southeast 475 547 37,000  Level Fort Worth Center
Tue 01:18:14 PM 35.4383 -98.3028 142° Southeast 480 552 37,000  Level Fort Worth Center
Tue 01:19:14 PM 35.3347 -98.2075 143° Southeast 475 547 37,000  Level Fort Worth Center
Tue 01:20:14 PM 35.2311 -98.1100 142° Southeast 475 547 37,000  Level Fort Worth Center
Tue 01:21:14 PM 35.1253 -98.0100 142° Southeast 475 547 37,000  Level Fort Worth Center
Tue 01:22:14 PM 35.0214 -97.9181 144° Southeast 475 547 37,000  Level Fort Worth Center
Tue 01:23:14 PM 34.9278 -97.8289 142° Southeast 470 541 37,000  Level Fort Worth Center
Tue 01:24:14 PM 34.8239 -97.7322 143° Southeast 475 547 37,000  Level Fort Worth Center
Tue 01:25:14 PM 34.7197 -97.6383 143° Southeast 475 547 37,000  Level Fort Worth Center
Tue 01:26:14 PM 34.6136 -97.5397 143° Southeast 475 547 37,000  Level Fort Worth Center
Tue 01:27:14 PM 34.5072 -97.4436 143° Southeast 475 547 37,000  Level Fort Worth Center
Tue 01:28:14 PM 34.4050 -97.3481 142° Southeast 475 547 37,000  Level Fort Worth Center
Tue 01:29:14 PM 34.2983 -97.2525 143° Southeast 475 547 37,000  Level Fort Worth Center
Tue 01:30:14 PM 34.1919 -97.1600 144° Southeast 475 547 37,000  Level Fort Worth Center
Tue 01:31:14 PM 34.0747 -97.0650 146° Southeast 469 540 37,000  Level Fort Worth Center
Tue 01:32:14 PM 33.9639 -96.9853 149° Southeast 469 540 37,000  Level Fort Worth Center
Tue 01:33:14 PM 33.8531 -96.9033 148° Southeast 469 540 37,000  Level Fort Worth Center
Tue 01:34:14 PM 33.7378 -96.8239 150° Southeast 469 540 37,000  Level Fort Worth Center
Tue 01:35:14 PM 33.6269 -96.7425 149° Southeast 469 540 37,000  Level Fort Worth Center
Tue 01:36:14 PM 33.5389 -96.6758 148° Southeast 469 540 37,000  Level Fort Worth Center
Tue 01:37:14 PM 33.4153 -96.5872 149° Southeast 469 540 37,000  Level Fort Worth Center
Tue 01:38:14 PM 33.2997 -96.5064 150° Southeast 469 540 37,000  Level Fort Worth Center
Tue 01:39:14 PM 33.1886 -96.4256 149° Southeast 474 545 37,000  Level Fort Worth Center
Tue 01:40:14 PM 33.0753 -96.3450 149° Southeast 474 545 37,000  Level Fort Worth Center
Tue 01:41:14 PM 32.9492 -96.2597 150° Southeast 474 545 37,000  Level Fort Worth Center
Tue 01:42:14 PM 32.8483 -96.1869 149° Southeast 474 545 37,000  Level Fort Worth Center
Tue 01:43:14 PM 32.7389 -96.1094 149° Southeast 469 540 37,000  Level Fort Worth Center
Tue 01:44:14 PM 32.6253 -96.0297 149° Southeast 469 540 37,000  Level Fort Worth Center
Tue 01:45:14 PM 32.5139 -95.9500 149° Southeast 469 540 37,000  Level Fort Worth Center
Tue 01:46:14 PM 32.4022 -95.8731 150° Southeast 469 540 37,000  Level Fort Worth Center
Tue 01:47:14 PM 32.2906 -95.7939 149° Southeast 469 540 37,000  Level Fort Worth Center
Tue 01:48:14 PM 32.1769 -95.7172 150° Southeast 469 540 37,000  Level Fort Worth Center
Tue 01:49:14 PM 32.0672 -95.6408 149° Southeast 469 540 37,000  Level Fort Worth Center
Tue 01:50:53 PM 31.8936 -95.5183 149° Southeast 464 534 37,000  Level Houston Center
Tue 01:51:55 PM 31.7608 -95.4264 150° Southeast 462 532 37,000  Level Houston Center
Tue 01:52:57 PM 31.6506 -95.3506 150° Southeast 459 528 37,000  Level Houston Center
Tue 01:53:59 PM 31.5381 -95.2742 150° Southeast 467 537 37,000  Level Houston Center
Tue 01:55:01 PM 31.4267 -95.1986 150° Southeast 467 537 37,000  Level Houston Center
Tue 01:56:03 PM 31.3144 -95.1239 150° Southeast 467 537 37,000  Level Houston Center
Tue 01:57:06 PM 31.1819 -95.0328 150° Southeast 466 536 37,000  Level Houston Center
Tue 01:58:07 PM 31.0708 -94.9633 152° Southeast 465 535 37,000  Level Houston Center
Tue 01:59:09 PM 30.9614 -94.8869 149° Southeast 470 541 37,000  Level Houston Center
Tue 02:00:11 PM 30.8539 -94.8128 149° Southeast 457 526 37,000  Level Houston Center
Tue 02:01:13 PM 30.7461 -94.7400 150° Southeast 451 519 37,000  Level Houston Center
Tue 02:02:15 PM 30.6158 -94.6533 150° Southeast 450 518 37,000  Level Houston Center
Tue 02:03:17 PM 30.5067 -94.5800 150° Southeast 452 520 37,000  Level Houston Center
Tue 02:04:19 PM 30.3978 -94.5086 151° Southeast 451 519 37,000  Level Houston Center
Tue 02:05:21 PM 30.2903 -94.4367 150° Southeast 450 518 37,000 -48 Level Houston Center
Tue 02:06:23 PM 30.1825 -94.3658 150° Southeast 449 517 36,900  Descending Houston Center
Tue 02:07:25 PM 30.0753 -94.2944 150° Southeast 448 516 37,000 48 Climbing Houston Center
Tue 02:08:27 PM 29.9428 -94.2075 150° Southeast 449 517 37,000 -48 Level Houston Center
Tue 02:09:29 PM 29.8361 -94.1375 150° Southeast 452 520 36,900  Descending Houston Center
Tue 02:10:31 PM 29.7292 -94.0675 150° Southeast 447 514 37,000  Climbing Houston Center
Tue 02:11:33 PM 29.6272 -93.9900 147° Southeast 442 509 36,900  Descending Houston Center
Tue 02:12:35 PM 29.5297 -93.9067 143° Southeast 441 507 37,000 48 Climbing Houston Center
Tue 02:13:37 PM 29.4325 -93.8228 143° Southeast 438 504 37,000  Level Houston Center
Tue 02:14:39 PM 29.3158 -93.7233 143° Southeast 438 504 37,000  Level Houston Center
Tue 02:15:41 PM 29.2175 -93.6417 144° Southeast 438 504 37,000 -48 Level Houston Center
Tue 02:16:43 PM 29.1203 -93.5603 144° Southeast 436 502 36,900  Descending Houston Center
Tue 02:17:45 PM 29.0214 -93.4717 142° Southeast 445 512 37,000 48 Climbing Houston Center
Tue 02:18:47 PM 28.9219 -93.3881 144° Southeast 446 513 37,000  Level Houston Center
Tue 02:19:49 PM 28.8025 -93.2869 143° Southeast 447 514 37,000 -48 Level Houston Center
Tue 02:20:51 PM 28.7022 -93.2008 143° Southeast 449 517 36,900 -48 Descending Houston Center
Tue 02:21:53 PM 28.6025 -93.1192 144° Southeast 447 514 36,900 48 Level Houston Center
Tue 02:22:55 PM 28.5028 -93.0353 144° Southeast 445 512 37,000  Climbing Houston Center
Tue 02:23:57 PM 28.4031 -92.9553 145° Southeast 442 509 36,900  Descending Houston Center
Tue 02:24:59 PM 28.3039 -92.8692 143° Southeast 445 512 37,000  Climbing Houston Center
Tue 02:26:01 PM 28.1853 -92.7703 144° Southeast 443 510 36,900  Descending Houston Center
Tue 02:27:03 PM 28.0869 -92.6894 144° Southeast 439 505 37,000  Climbing Houston Center
Tue 02:28:05 PM 27.9869 -92.6097 145° Southeast 440 506 36,900  Descending Houston Center
Tue 02:29:07 PM 27.8867 -92.5303 145° Southeast 440 506 37,000  Climbing Houston Center
Tue 02:30:10 PM 27.7872 -92.4511 145° Southeast 439 505 36,900 -48 Descending Houston Center
Tue 02:31:12 PM 27.6889 -92.3667 143° Southeast 440 506 36,900  Level Houston Center
Tue 02:32:14 PM 27.5697 -92.2689 144° Southeast 441 507 36,900 48 Level Houston Center
Tue 02:33:16 PM 27.4714 -92.1889 144° Southeast 439 505 37,000 48 Climbing Houston Center
Tue 02:34:18 PM 27.3728 -92.1086 144° Southeast 438 504 37,000  Level Houston Center
Tue 02:35:20 PM 27.2725 -92.0297 145° Southeast 439 505 37,000  Level Houston Center
Tue 02:36:22 PM 27.1744 -91.9478 143° Southeast 438 504 37,000  Level Houston Center
Tue 02:38:00 PM 27.0141 -91.8110 144° Southeast  Level FlightAware Approximate
Tue 02:45:00 PM 26.3100 -91.2527 146° Southeast  Level FlightAware Approximate
Tue 02:46:00 PM 26.2082 -91.1751 146° Southeast  Level FlightAware Approximate
Tue 02:47:00 PM 26.1064 -91.0976 146° Southeast  Level FlightAware Approximate
Tue 02:48:00 PM 26.0046 -91.0202 146° Southeast  Level FlightAware Approximate
Tue 02:49:00 PM 25.9045 -90.9402 144° Southeast  Level FlightAware Approximate
Tue 02:50:00 PM 25.8044 -90.8602 144° Southeast  Level FlightAware Approximate
Tue 02:51:00 PM 25.7044 -90.7801 144° Southeast  Level FlightAware Approximate
Tue 02:52:00 PM 25.6038 -90.7010 145° Southeast  Level FlightAware Approximate
Tue 02:53:00 PM 25.5030 -90.6224 145° Southeast  Level FlightAware Approximate
Tue 02:54:00 PM 25.4020 -90.5440 145° Southeast  Level FlightAware Approximate
Tue 02:55:00 PM 25.3011 -90.4657 145° Southeast  Level FlightAware Approximate
Tue 02:56:00 PM 25.2001 -90.3875 145° Southeast  Level FlightAware Approximate
Tue 02:57:00 PM 25.0990 -90.3094 145° Southeast  Level FlightAware Approximate
Tue 02:58:00 PM 24.9980 -90.2315 145° Southeast  Level FlightAware Approximate
Tue 02:59:00 PM 24.8968 -90.1537 145° Southeast  Level FlightAware Approximate
Tue 03:00:00 PM 24.7957 -90.0761 145° Southeast  Level FlightAware Approximate
Tue 03:01:00 PM 24.6945 -89.9986 145° Southeast  Level FlightAware Approximate
Tue 03:02:00 PM 24.5932 -89.9211 145° Southeast  Level FlightAware Approximate
Tue 03:03:00 PM 24.4928 -89.8428 138° Southeast  Level FlightAware Approximate
Tue 03:04:00 PM 24.3919 -89.7663 146° Southeast  Level FlightAware Approximate
Tue 03:05:00 PM 24.2898 -89.6916 146° Southeast  Level FlightAware Approximate
Tue 03:06:00 PM 24.1877 -89.6170 146° Southeast  Level FlightAware Approximate
Tue 03:07:00 PM 24.0856 -89.5426 146° Southeast  Level FlightAware Approximate
Tue 03:08:00 PM 23.9848 -89.4660 145° Southeast  Level FlightAware Approximate
Tue 03:09:00 PM 23.8848 -89.3882 145° Southeast  Level FlightAware Approximate
Tue 03:10:00 PM 23.7849 -89.3104 145° Southeast  Level FlightAware Approximate
Tue 03:11:00 PM 23.6841 -89.2341 146° Southeast  Level FlightAware Approximate
Tue 03:12:00 PM 23.5828 -89.1586 146° Southeast  Level FlightAware Approximate
Tue 03:13:00 PM 23.4814 -89.0832 146° Southeast  Level FlightAware Approximate
Tue 03:14:00 PM 23.3800 -89.0079 146° Southeast  Level FlightAware Approximate
Tue 03:15:00 PM 23.2786 -88.9328 146° Southeast  Level FlightAware Approximate
Tue 03:16:00 PM 23.1772 -88.8577 146° Southeast  Level FlightAware Approximate
Tue 03:17:00 PM 23.0753 -88.7835 146° Southeast  Level FlightAware Approximate
Tue 03:18:00 PM 22.9735 -88.7090 144° Southeast  Level FlightAware Approximate
Tue 03:19:00 PM 22.8738 -88.6314 144° Southeast  Level FlightAware Approximate
Tue 03:20:00 PM 22.7741 -88.5539 144° Southeast  Level FlightAware Approximate
Tue 03:21:00 PM 22.6741 -88.4769 147° Southeast  Level FlightAware Approximate
Tue 03:22:00 PM 22.5707 -88.4053 147° Southeast  Level FlightAware Approximate
Tue 03:23:00 PM 22.4674 -88.3338 147° Southeast  Level FlightAware Approximate
Tue 03:24:00 PM 22.3665 -88.2582 145° Southeast  Level FlightAware Approximate
Tue 03:25:00 PM 22.2657 -88.1827 148° Southeast  Level FlightAware Approximate
Tue 03:26:00 PM 22.1621 -88.1121 137° Southeast  Level FlightAware Approximate
Tue 03:27:00 PM 22.0779 -88.0158 133° Southeast  Level FlightAware Approximate
Tue 03:28:00 PM 21.9946 -87.9186 133° Southeast  Level FlightAware Approximate
Tue 03:29:00 PM 21.9091 -87.8238 136° Southeast  Level FlightAware Approximate
Tue 03:30:00 PM 21.8212 -87.7317 136° Southeast  Level FlightAware Approximate
Tue 03:31:00 PM 21.7332 -87.6396 136° Southeast  Level FlightAware Approximate
Tue 03:32:00 PM 21.6451 -87.5477 136° Southeast  Level FlightAware Approximate
Tue 03:33:00 PM 21.5589 -87.4540 132° Southeast  Level FlightAware Approximate
Tue 03:34:00 PM 21.4748 -87.3581 137° Southeast  Level FlightAware Approximate
Tue 03:35:00 PM 21.3891 -87.2638 134° Southeast  Level FlightAware Approximate
Tue 03:36:00 PM 21.3032 -87.1698 137° Southeast  Level FlightAware Approximate
Tue 03:37:00 PM 21.2134 -87.0801 137° Southeast  Level FlightAware Approximate
Tue 03:38:00 PM 21.1323 -86.9823 137° Southeast  Level FlightAware Approximate
Tue 03:39:00 PM 21.0426 -86.8926 137° Southeast  Level FlightAware Approximate
Tue 03:40:00 PM 21.0365 -86.8771 137° Southeast  Level Estimated
Tue 03:41:00 PM 21.0365 -86.8771 137° Southeast  Level Estimated
Tue 03:42:00 PM 21.0365 -86.8771 137° Southeast  Level Estimated
Tue 03:43:00 PM 21.0365 -86.8771 137° Southeast  Level Estimated
Tue 03:44:00 PM 21.0365 -86.8771 137° Southeast  Level Estimated
Tue 03:45:00 PM 21.0365 -86.8771 137° Southeast  Level Estimated
Tue 03:46:00 PM 21.0365 -86.8771 137° Southeast  Level Estimated
Tue 03:47:00 PM 21.0365 -86.8771 137° Southeast  Level Estimated
Tue 03:48:00 PM 21.0365 -86.8771 137° Southeast  Level Estimated

Login

Don't have an account? Register now (free) for customized features, flight alerts, and more!